Terminal Aerodrome Forecast
Issued by NWS

Home | Current Version | Previous Version | Text Only | Print | Product List | Glossary On
Versions: 1 2 3 4 5 6 7 8 9 10 11 12 13 14 15 16 17 18 19 20
000
FTUS43 KAPX 260521
TAFMBL
TAF
KMBL 260521Z 2606/2706 28007KT P6SM SCT019 BKN060
     FM261000 27007KT P6SM VCSH OVC028
     FM261500 28011G21KT P6SM VCSH OVC025
     FM261800 29013G25KT P6SM -SHRA OVC020
     FM262100 31013G25KT P6SM VCSH OVC025
     FM270000 33008KT P6SM OVC035
     FM270200 33007KT P6SM BKN080=

USA.gov is the U.S. government's official web portal to all federal, state and local government web resources and services.